createdAt,value
2018-08-23T00:00:01.893Z,20.90
2018-08-23T00:02:39.192Z,20.80
2018-08-23T00:05:19.757Z,20.70
2018-08-23T00:08:20.622Z,20.70
2018-08-23T00:11:05.171Z,20.60
2018-08-23T00:13:47.830Z,20.60
2018-08-23T00:16:56.007Z,20.60
2018-08-23T00:19:25.694Z,20.50
2018-08-23T00:22:08.239Z,20.50
2018-08-23T00:24:45.585Z,20.50
2018-08-23T00:27:30.003Z,20.50
2018-08-23T00:30:05.021Z,20.50
2018-08-23T00:32:33.603Z,20.50
2018-08-23T00:35:18.995Z,20.40
2018-08-23T00:38:03.391Z,20.30
2018-08-23T00:40:46.995Z,20.30
2018-08-23T00:43:24.069Z,20.20
2018-08-23T00:45:52.694Z,20.20
2018-08-23T00:48:24.540Z,20.20
2018-08-23T00:50:59.177Z,20.20
2018-08-23T00:53:33.310Z,20.10
2018-08-23T00:56:14.708Z,20.10
2018-08-23T00:59:05.298Z,20.10
2018-08-23T01:01:47.317Z,20.00
2018-08-23T01:04:25.116Z,20.10
2018-08-23T01:07:05.130Z,20.00
2018-08-23T01:09:50.001Z,20.00
2018-08-23T01:12:27.842Z,20.00
2018-08-23T01:15:04.341Z,20.00
2018-08-23T01:17:33.022Z,20.00
2018-08-23T01:20:06.904Z,20.00
2018-08-23T01:22:48.130Z,19.90
2018-08-23T01:25:23.859Z,19.90
2018-08-23T01:27:52.178Z,19.90
2018-08-23T01:30:22.941Z,19.90
2018-08-23T01:32:51.545Z,19.90
2018-08-23T01:35:24.944Z,19.90
2018-08-23T01:37:53.238Z,19.90
2018-08-23T01:40:26.106Z,19.90
2018-08-23T01:42:55.096Z,19.80
2018-08-23T01:48:17.479Z,19.80
2018-08-23T01:51:10.714Z,19.70
2018-08-23T01:56:23.146Z,19.60
2018-08-23T01:59:05.976Z,19.60
2018-08-23T02:01:34.233Z,19.60
2018-08-23T02:04:19.744Z,19.60
2018-08-23T02:10:10.914Z,19.50
2018-08-23T02:13:01.753Z,19.40
2018-08-23T02:18:26.156Z,19.40
2018-08-23T02:21:00.927Z,19.40
2018-08-23T02:23:36.566Z,19.40
2018-08-23T02:29:04.362Z,19.40
2018-08-23T02:31:36.083Z,19.40
2018-08-23T02:34:05.184Z,19.30
2018-08-23T02:39:22.328Z,19.20
2018-08-23T02:42:07.470Z,19.20
2018-08-23T02:44:46.297Z,19.20
2018-08-23T02:47:26.260Z,19.10
2018-08-23T02:50:09.375Z,19.10
2018-08-23T02:52:59.474Z,19.10
2018-08-23T02:55:30.505Z,19.10
2018-08-23T02:58:00.407Z,19.00
2018-08-23T03:00:36.019Z,19.10
2018-08-23T03:06:05.301Z,19.00
2018-08-23T03:09:00.542Z,19.00
2018-08-23T03:11:33.337Z,19.00
2018-08-23T03:14:24.315Z,18.90
2018-08-23T03:18:22.552Z,18.90
2018-08-23T03:21:14.725Z,18.90
2018-08-23T03:24:00.005Z,18.80
2018-08-23T03:26:30.513Z,18.70
2018-08-23T03:32:06.902Z,18.70
2018-08-23T03:34:44.778Z,18.60
2018-08-23T03:37:23.823Z,18.60
2018-08-23T03:40:05.001Z,18.50
2018-08-23T03:42:44.695Z,18.50
2018-08-23T03:45:23.749Z,18.50
2018-08-23T03:48:02.007Z,18.50
2018-08-23T03:50:50.649Z,18.50
2018-08-23T03:53:24.761Z,18.50
2018-08-23T03:56:10.437Z,18.50
2018-08-23T04:01:23.317Z,18.40
2018-08-23T04:04:05.143Z,18.40
2018-08-23T04:06:45.269Z,18.40
2018-08-23T04:09:26.377Z,18.30
2018-08-23T04:12:08.117Z,18.30
2018-08-23T04:15:00.838Z,18.20
2018-08-23T04:18:14.379Z,18.10
2018-08-23T04:21:06.453Z,18.10
2018-08-23T04:23:51.938Z,18.00
2018-08-23T04:26:33.177Z,18.00
2018-08-23T04:29:30.063Z,18.00
2018-08-23T04:32:41.734Z,18.00
2018-08-23T04:35:30.038Z,18.00
2018-08-23T04:41:13.826Z,17.90
2018-08-23T04:43:57.639Z,17.80
2018-08-23T04:46:44.285Z,17.90
2018-08-23T04:49:28.604Z,17.90
2018-08-23T04:51:56.905Z,17.90
2018-08-23T04:57:38.207Z,17.90
2018-08-23T05:00:24.185Z,17.90
2018-08-23T05:06:48.977Z,17.90
2018-08-23T05:12:58.366Z,17.80
2018-08-23T05:15:51.843Z,17.90
2018-08-23T05:18:22.173Z,17.90
2018-08-23T05:21:21.570Z,17.90
2018-08-23T05:24:20.905Z,17.90
2018-08-23T05:26:50.807Z,18.00
2018-08-23T05:29:28.272Z,18.00
2018-08-23T05:37:26.178Z,18.10
2018-08-23T05:40:12.093Z,18.10
2018-08-23T05:43:00.613Z,18.10
2018-08-23T05:45:36.407Z,18.10
2018-08-23T05:48:26.526Z,18.20
2018-08-23T05:51:09.930Z,18.30
2018-08-23T05:54:01.626Z,18.40
2018-08-23T05:57:18.989Z,18.50
2018-08-23T06:00:30.453Z,18.50
2018-08-23T06:04:03.075Z,18.60
2018-08-23T06:07:10.599Z,18.70
2018-08-23T06:10:04.711Z,18.80
2018-08-23T06:16:30.968Z,19.00
2018-08-23T06:19:20.807Z,19.10
2018-08-23T06:22:25.398Z,19.10
2018-08-23T06:31:22.251Z,19.40
2018-08-23T06:34:10.843Z,19.60
2018-08-23T06:36:43.836Z,19.80
2018-08-23T06:39:12.138Z,19.90
2018-08-23T06:41:44.009Z,19.90
2018-08-23T06:44:12.748Z,20.00
2018-08-23T06:47:03.692Z,20.00
2018-08-23T06:49:57.522Z,19.90
2018-08-23T06:52:40.076Z,19.90
2018-08-23T06:55:40.156Z,19.80
2018-08-23T06:58:26.483Z,19.80
2018-08-23T07:01:09.024Z,19.70
2018-08-23T07:04:15.289Z,19.60
2018-08-23T07:10:46.938Z,19.70
2018-08-23T07:13:37.730Z,19.80
2018-08-23T07:16:15.410Z,19.80
2018-08-23T07:19:06.828Z,19.90
2018-08-23T07:25:41.552Z,20.20
2018-08-23T07:28:40.440Z,20.30
2018-08-23T07:31:38.199Z,20.40
2018-08-23T07:38:01.220Z,20.70
2018-08-23T07:40:45.994Z,20.90
2018-08-23T07:46:34.554Z,21.30
2018-08-23T07:49:11.923Z,21.60
2018-08-23T07:51:59.736Z,21.80
2018-08-23T07:54:31.037Z,21.90
2018-08-23T07:57:22.540Z,22.00
2018-08-23T08:00:15.581Z,22.10
2018-08-23T08:02:50.418Z,22.30
2018-08-23T08:05:31.564Z,22.50
2018-08-23T08:08:06.840Z,22.60
2018-08-23T08:13:59.587Z,22.90
2018-08-23T08:16:39.298Z,23.10
2018-08-23T08:19:22.251Z,23.30
2018-08-23T08:21:52.813Z,23.40
2018-08-23T08:24:30.717Z,23.50
2018-08-23T08:27:02.890Z,23.60
2018-08-23T08:29:45.758Z,23.80
2018-08-23T08:32:44.291Z,23.90
2018-08-23T08:35:21.728Z,24.10
2018-08-23T08:38:05.188Z,24.20
2018-08-23T08:40:51.224Z,24.30
2018-08-23T08:43:21.940Z,24.40
2018-08-23T08:49:46.622Z,24.60
2018-08-23T08:52:32.661Z,24.60
2018-08-23T08:59:00.788Z,24.60
2018-08-23T09:01:45.104Z,24.70
2018-08-23T09:04:45.188Z,24.80
2018-08-23T09:07:30.772Z,24.80
2018-08-23T09:10:28.217Z,24.90
2018-08-23T09:13:10.135Z,24.90
2018-08-23T09:16:07.718Z,24.90
2018-08-23T09:18:54.519Z,25.00
2018-08-23T09:21:46.695Z,25.00
2018-08-23T09:24:40.828Z,25.10
2018-08-23T09:27:35.455Z,25.20
2018-08-23T09:30:26.724Z,25.20
2018-08-23T09:33:27.999Z,25.20
2018-08-23T09:38:58.839Z,25.30
2018-08-23T09:41:41.885Z,25.40
2018-08-23T09:44:31.713Z,25.40
2018-08-23T09:47:10.275Z,25.40
2018-08-23T09:50:07.595Z,25.60
2018-08-23T09:52:55.002Z,25.70
2018-08-23T09:55:39.979Z,25.90
2018-08-23T10:01:17.189Z,26.10
2018-08-23T10:04:05.689Z,26.10
2018-08-23T10:06:46.375Z,26.10
2018-08-23T10:09:20.662Z,26.20
2018-08-23T10:11:58.433Z,26.20
2018-08-23T10:14:36.551Z,26.30
2018-08-23T10:17:22.180Z,26.30
2018-08-23T10:20:10.733Z,26.30
2018-08-23T10:22:55.396Z,26.40
2018-08-23T10:25:38.336Z,26.50
2018-08-23T10:28:08.611Z,26.60
2018-08-23T10:30:51.436Z,26.60
2018-08-23T10:36:10.139Z,26.50
2018-08-23T10:38:48.748Z,26.40
2018-08-23T10:50:35.048Z,26.80
2018-08-23T10:56:39.891Z,27.00
2018-08-23T11:02:16.638Z,27.10
2018-08-23T11:08:02.598Z,27.20
2018-08-23T11:10:53.029Z,27.20
2018-08-23T11:13:35.575Z,27.30
2018-08-23T11:16:17.393Z,27.40
2018-08-23T11:19:06.429Z,27.40
2018-08-23T11:21:43.639Z,27.60
2018-08-23T11:24:11.885Z,27.70
2018-08-23T11:29:27.756Z,27.90
2018-08-23T11:32:06.634Z,28.10
2018-08-23T11:34:49.329Z,28.10
2018-08-23T11:37:21.623Z,28.20
2018-08-23T11:39:50.085Z,28.20
2018-08-23T11:45:28.922Z,27.90
2018-08-23T11:55:24.064Z,27.80
2018-08-23T11:57:59.776Z,27.60
2018-08-23T12:00:46.435Z,27.70
2018-08-23T12:03:29.556Z,27.80
2018-08-23T12:06:03.453Z,27.90
2018-08-23T12:09:01.521Z,28.00
2018-08-23T12:15:14.683Z,28.40
2018-08-23T12:25:05.456Z,28.50
2018-08-23T12:27:55.657Z,28.50
2018-08-23T12:30:38.528Z,28.40
2018-08-23T12:33:22.917Z,28.40
2018-08-23T12:43:21.232Z,28.70
2018-08-23T12:49:56.624Z,28.80
2018-08-23T12:52:57.586Z,28.70
2018-08-23T12:59:18.707Z,28.90
2018-08-23T13:13:25.844Z,29.00
2018-08-23T13:41:18.252Z,28.50
2018-08-23T13:59:44.254Z,28.60
2018-08-23T14:02:55.464Z,28.70
2018-08-23T14:06:02.896Z,28.80
2018-08-23T14:09:07.939Z,28.90
2018-08-23T14:11:37.638Z,28.90
2018-08-23T14:38:19.705Z,30.10
2018-08-23T14:41:28.115Z,30.20
2018-08-23T15:08:28.138Z,29.00
2018-08-23T15:11:42.038Z,28.90
2018-08-23T15:18:14.580Z,28.80
2018-08-23T15:30:53.775Z,29.10
2018-08-23T15:33:23.022Z,29.20
2018-08-23T15:36:27.336Z,29.10
2018-08-23T15:42:54.651Z,28.80
2018-08-23T15:45:36.000Z,28.60
2018-08-23T15:48:15.083Z,28.40
2018-08-23T15:51:08.371Z,28.20
2018-08-23T15:54:00.842Z,28.10
2018-08-23T15:56:29.167Z,28.00
2018-08-23T15:59:08.124Z,27.90
2018-08-23T16:01:52.527Z,27.90
2018-08-23T16:04:20.850Z,27.80
2018-08-23T16:07:03.658Z,27.70
2018-08-23T16:09:35.723Z,27.60
2018-08-23T16:12:04.503Z,27.50
2018-08-23T16:14:51.004Z,27.50
2018-08-23T16:17:29.423Z,27.30
2018-08-23T16:23:07.392Z,26.90
2018-08-23T16:25:43.151Z,26.70
2018-08-23T16:28:11.712Z,26.50
2018-08-23T16:31:04.672Z,26.10
2018-08-23T16:33:48.851Z,25.60
2018-08-23T16:36:31.127Z,25.10
2018-08-23T16:39:18.279Z,24.60
2018-08-23T16:42:17.776Z,24.20
2018-08-23T16:45:02.429Z,24.00
2018-08-23T16:47:38.966Z,24.00
2018-08-23T16:50:20.652Z,24.10
2018-08-23T16:53:05.398Z,24.20
2018-08-23T17:03:09.008Z,24.60
2018-08-23T17:06:25.869Z,24.60
2018-08-23T17:09:19.738Z,24.60
2018-08-23T17:20:01.820Z,24.40
2018-08-23T17:26:20.746Z,24.20
2018-08-23T17:32:44.154Z,24.20
2018-08-23T17:35:41.497Z,24.10
2018-08-23T17:42:03.043Z,24.00
2018-08-23T17:47:37.563Z,23.80
2018-08-23T17:50:07.513Z,23.70
2018-08-23T17:52:59.407Z,23.60
2018-08-23T17:55:34.033Z,23.60
2018-08-23T17:58:02.370Z,23.50
2018-08-23T18:00:38.857Z,23.40
2018-08-23T18:03:07.551Z,23.30
2018-08-23T18:05:50.326Z,23.30
2018-08-23T18:08:28.832Z,23.30
2018-08-23T18:10:58.783Z,23.30
2018-08-23T18:13:29.178Z,23.20
2018-08-23T18:16:21.416Z,23.20
2018-08-23T18:19:05.057Z,23.00
2018-08-23T18:21:38.083Z,23.00
2018-08-23T18:24:10.197Z,22.90
2018-08-23T18:26:53.901Z,22.90
2018-08-23T18:29:26.101Z,22.90
2018-08-23T18:31:54.953Z,22.80
2018-08-23T18:34:23.622Z,22.80
2018-08-23T18:37:18.399Z,22.80
2018-08-23T18:39:59.285Z,22.70
2018-08-23T18:42:32.937Z,22.70
2018-08-23T18:45:08.865Z,22.70
2018-08-23T18:47:48.334Z,22.60
2018-08-23T18:50:26.871Z,22.60
2018-08-23T18:53:10.683Z,22.50
2018-08-23T18:55:41.037Z,22.40
2018-08-23T18:58:09.841Z,22.30
2018-08-23T19:00:38.411Z,22.30
2018-08-23T19:03:07.020Z,22.10
2018-08-23T19:08:27.666Z,21.90
2018-08-23T19:11:10.551Z,21.80
2018-08-23T19:13:53.661Z,21.80
2018-08-23T19:16:29.537Z,21.70
2018-08-23T19:19:23.013Z,21.60
2018-08-23T19:21:51.689Z,21.60
2018-08-23T19:24:28.295Z,21.50
2018-08-23T19:26:58.144Z,21.50
2018-08-23T19:29:40.045Z,21.40
2018-08-23T19:32:25.496Z,21.40
2018-08-23T19:35:14.156Z,21.30
2018-08-23T19:38:01.713Z,21.20
2018-08-23T19:40:40.236Z,21.20
2018-08-23T19:43:23.851Z,21.20
2018-08-23T19:46:07.436Z,21.10
2018-08-23T19:48:46.335Z,21.10
2018-08-23T19:51:18.414Z,21.00
2018-08-23T19:54:01.804Z,21.00
2018-08-23T19:57:02.987Z,20.90
2018-08-23T19:59:40.895Z,20.80
2018-08-23T20:02:23.855Z,20.80
2018-08-23T20:04:52.230Z,20.70
2018-08-23T20:07:20.715Z,20.60
2018-08-23T20:09:53.893Z,20.60
2018-08-23T20:12:23.561Z,20.60
2018-08-23T20:18:19.610Z,20.60
2018-08-23T20:20:55.770Z,20.60
2018-08-23T20:23:27.137Z,20.50
2018-08-23T20:25:56.459Z,20.50
2018-08-23T20:28:25.097Z,20.40
2018-08-23T20:31:02.472Z,20.40
2018-08-23T20:33:42.361Z,20.30
2018-08-23T20:36:31.776Z,20.20
2018-08-23T20:39:21.452Z,20.20
2018-08-23T20:49:08.310Z,20.00
2018-08-23T20:51:39.096Z,20.00
2018-08-23T20:54:24.109Z,20.00
2018-08-23T20:57:23.440Z,20.00
2018-08-23T21:00:01.638Z,19.90
2018-08-23T21:02:38.970Z,19.90
2018-08-23T21:05:31.440Z,19.90
2018-08-23T21:07:59.734Z,19.90
2018-08-23T21:10:28.457Z,19.90
2018-08-23T21:12:58.092Z,19.80
2018-08-23T21:15:27.294Z,19.80
2018-08-23T21:18:46.516Z,19.80
2018-08-23T21:21:26.096Z,19.70
2018-08-23T21:23:58.087Z,19.60
2018-08-23T21:26:26.392Z,19.60
2018-08-23T21:29:06.712Z,19.60
2018-08-23T21:31:51.405Z,19.60
2018-08-23T21:34:27.891Z,19.50
2018-08-23T21:37:05.112Z,19.50
2018-08-23T21:39:44.614Z,19.40
2018-08-23T21:42:24.863Z,19.40
2018-08-23T21:45:08.413Z,19.40
2018-08-23T21:47:48.381Z,19.30
2018-08-23T21:50:25.406Z,19.30
2018-08-23T21:52:53.901Z,19.20
2018-08-23T21:55:31.995Z,19.20
2018-08-23T21:58:00.754Z,19.20
2018-08-23T22:00:39.893Z,19.20
2018-08-23T22:03:22.221Z,19.10
2018-08-23T22:06:09.204Z,19.10
2018-08-23T22:08:50.079Z,19.00
2018-08-23T22:14:10.893Z,19.00
2018-08-23T22:16:56.754Z,18.90
2018-08-23T22:19:28.808Z,18.90
2018-08-23T22:22:09.311Z,18.90
2018-08-23T22:24:47.554Z,18.90
2018-08-23T22:27:16.054Z,18.80
2018-08-23T22:30:00.216Z,18.80
2018-08-23T22:32:34.283Z,18.80
2018-08-23T22:35:13.085Z,18.80
2018-08-23T22:40:26.763Z,18.70
2018-08-23T22:43:08.616Z,18.70
2018-08-23T22:45:47.029Z,18.70
2018-08-23T22:48:29.099Z,18.60
2018-08-23T22:51:05.472Z,18.70
2018-08-23T22:53:52.490Z,18.60
2018-08-23T22:56:24.628Z,18.70
2018-08-23T22:59:05.686Z,18.60
2018-08-23T23:01:47.134Z,18.60
2018-08-23T23:04:24.157Z,18.50
2018-08-23T23:06:53.503Z,18.50
2018-08-23T23:09:31.537Z,18.50
2018-08-23T23:12:08.891Z,18.50
2018-08-23T23:14:52.615Z,18.50
2018-08-23T23:17:27.487Z,18.50
2018-08-23T23:20:11.027Z,18.50
2018-08-23T23:22:59.203Z,18.40
2018-08-23T23:25:51.476Z,18.40
2018-08-23T23:28:27.257Z,18.40
2018-08-23T23:30:55.665Z,18.40
2018-08-23T23:33:26.381Z,18.40
2018-08-23T23:36:08.605Z,18.40
2018-08-23T23:38:50.445Z,18.40
2018-08-23T23:41:27.775Z,18.30
2018-08-23T23:44:07.121Z,18.30
2018-08-23T23:47:01.301Z,18.40
2018-08-23T23:49:42.122Z,18.30
2018-08-23T23:52:27.629Z,18.30
2018-08-23T23:55:21.376Z,18.30
2018-08-23T23:57:50.686Z,18.30
